Time;durP1;ratioP1;P1;durP2;ratioP2;P2;SDS_P1;SDS_P2;PMS_P1;PMS_P2;Temp;Humidity;BMP_temperature;BMP_pressure;BME280_temperature;BME280_humidity;BME280_pressure;Samples;Min_cycle;Max_cycle;Signal;HPM_P1;HPM_P2
2022/10/23 00:00:21;;;;;;;38.53;23.40;;;12.60;99.90;;;;;;4209768;28;20048;-64
2022/10/23 00:02:22;;;;;;;40.40;22.57;;;12.60;99.90;;;;;;4211556;28;20101;-60
2022/10/23 00:04:27;;;;;;;36.70;22.73;;;12.60;99.90;;;;;;4202248;28;20044;-63
2022/10/23 00:06:30;;;;;;;37.53;24.20;;;12.60;99.90;;;;;;4194798;28;20082;-63
2022/10/23 00:08:31;;;;;;;32.03;22.30;;;12.50;99.90;;;;;;4193998;28;20082;-63
2022/10/23 00:10:32;;;;;;;32.23;18.30;;;12.50;99.90;;;;;;4195000;28;20082;-64
2022/10/23 00:12:33;;;;;;;23.67;14.53;;;12.50;99.90;;;;;;4193730;28;20021;-63
2022/10/23 00:14:35;;;;;;;15.67;9.77;;;12.60;99.90;;;;;;4194032;28;20454;-65
2022/10/23 00:16:36;;;;;;;12.23;8.87;;;12.60;99.90;;;;;;4196519;28;20927;-63
2022/10/23 00:18:38;;;;;;;9.40;7.43;;;12.70;99.90;;;;;;4207441;28;20490;-63
2022/10/23 00:20:39;;;;;;;11.63;7.87;;;12.80;99.90;;;;;;4211349;28;20024;-64
2022/10/23 00:22:40;;;;;;;8.23;6.37;;;12.80;99.90;;;;;;4205537;28;20048;-64
2022/10/23 00:24:42;;;;;;;9.33;6.07;;;12.90;99.90;;;;;;4194520;28;20455;-64
2022/10/23 00:26:43;;;;;;;7.67;5.57;;;12.90;99.90;;;;;;4194113;28;20074;-65
2022/10/23 00:28:47;;;;;;;7.20;4.60;;;12.90;99.90;;;;;;4194404;28;20040;-64
2022/10/23 00:30:48;;;;;;;5.60;4.40;;;13.00;99.90;;;;;;4193314;28;20538;-65
2022/10/23 00:32:49;;;;;;;5.47;3.80;;;13.00;99.90;;;;;;4195234;28;20028;-65
2022/10/23 00:34:50;;;;;;;6.47;3.40;;;13.00;99.90;;;;;;4193190;28;20370;-63
2022/10/23 00:36:51;;;;;;;3.77;2.37;;;13.10;99.90;;;;;;4194246;28;20029;-64
2022/10/23 00:38:53;;;;;;;2.73;2.20;;;13.10;99.90;;;;;;4193285;28;20459;-63
2022/10/23 00:40:54;;;;;;;3.37;2.20;;;13.10;99.90;;;;;;4194804;28;20028;-65
2022/10/23 00:42:55;;;;;;;3.00;2.13;;;13.10;99.90;;;;;;4192446;28;20082;-64
2022/10/23 00:45:32;;;;;;;2.53;2.33;;;13.20;99.90;;;;;;4194106;28;20837;-64
2022/10/23 00:47:33;;;;;;;8.67;7.97;;;13.20;99.90;;;;;;4150935;28;20057;-63
2022/10/23 00:49:35;;;;;;;5.57;4.83;;;13.20;99.90;;;;;;4204503;28;20132;-64
2022/10/23 00:51:49;;;;;;;4.57;2.87;;;13.20;99.90;;;;;;4210350;28;20028;-64
2022/10/23 00:53:53;;;;;;;4.80;4.30;;;13.20;99.90;;;;;;4211044;28;20031;-65
2022/10/23 00:55:56;;;;;;;4.23;3.47;;;13.20;99.90;;;;;;4209478;28;20510;-64
2022/10/23 00:57:57;;;;;;;4.10;3.70;;;13.20;99.90;;;;;;4209653;28;20381;-64
2022/10/23 00:59:59;;;;;;;3.50;3.10;;;13.10;99.90;;;;;;4210403;28;20887;-64
2022/10/23 01:02:00;;;;;;;6.57;4.13;;;13.10;99.90;;;;;;4210175;28;20488;-63
2022/10/23 01:04:03;;;;;;;5.67;3.50;;;13.10;99.90;;;;;;4210921;28;20035;-63
2022/10/23 01:06:17;;;;;;;4.67;3.17;;;13.10;99.90;;;;;;4209926;28;20024;-63
2022/10/23 01:08:39;;;;;;;3.27;2.97;;;13.10;99.90;;;;;;4210170;28;20040;-63
2022/10/23 01:10:48;;;;;;;4.47;3.20;;;13.00;99.90;;;;;;4210805;28;20032;-64
2022/10/23 01:13:20;;;;;;;8.57;3.65;;;13.00;99.90;;;;;;4210581;28;20020;-64
2022/10/23 01:15:50;;;;;;;5.07;3.10;;;13.00;99.90;;;;;;4165047;28;20450;-65
2022/10/23 01:18:04;;;;;;;3.97;3.43;;;13.00;99.90;;;;;;4193524;28;20071;-64
2022/10/23 01:20:27;;;;;;;4.03;3.40;;;13.00;99.90;;;;;;4197633;28;20035;-64
2022/10/23 01:22:49;;;;;;;5.03;3.67;;;12.90;99.90;;;;;;4206166;28;20040;-64
2022/10/23 01:25:19;;;;;;;4.43;3.47;;;12.90;99.90;;;;;;4212033;28;20093;-63
2022/10/23 01:27:31;;;;;;;6.00;4.05;;;12.90;99.90;;;;;;4213145;28;20109;-66
2022/10/23 01:29:42;;;;;;;5.17;4.40;;;12.90;99.90;;;;;;4213649;28;20447;-66
2022/10/23 01:32:17;;;;;;;7.83;5.67;;;12.80;99.90;;;;;;4212781;28;20044;-66
2022/10/23 01:34:43;;;;;;;5.80;4.30;;;12.80;99.90;;;;;;4200631;28;20040;-64
2022/10/23 01:36:48;;;;;;;5.27;4.30;;;12.80;99.90;;;;;;4185733;28;20048;-64
2022/10/23 01:39:07;;;;;;;7.30;5.60;;;12.80;99.90;;;;;;4196672;28;20021;-66
2022/10/23 01:41:42;;;;;;;12.13;5.43;;;12.80;99.90;;;;;;4196919;28;20046;-66
2022/10/23 01:43:56;;;;;;;7.73;4.70;;;12.70;99.90;;;;;;4195193;28;20492;-66
2022/10/23 01:46:04;;;;;;;7.47;5.77;;;12.70;99.90;;;;;;4196911;28;20090;-66
2022/10/23 01:48:10;;;;;;;7.30;5.60;;;12.70;99.90;;;;;;4195378;28;20044;-65
2022/10/23 01:50:14;;;;;;;6.87;5.53;;;12.70;99.90;;;;;;4197338;28;20025;-65
2022/10/23 01:52:16;;;;;;;8.37;6.43;;;12.60;99.90;;;;;;4195149;28;20032;-64
2022/10/23 01:54:20;;;;;;;10.00;6.30;;;12.60;99.90;;;;;;4196054;28;20045;-66
2022/10/23 01:56:34;;;;;;;8.73;5.90;;;12.60;99.90;;;;;;4196029;28;20028;-66
2022/10/23 01:58:36;;;;;;;8.90;6.00;;;12.60;99.90;;;;;;4198365;28;20040;-66
2022/10/23 02:00:40;;;;;;;10.87;7.67;;;12.60;99.90;;;;;;4212267;28;20085;-65
2022/10/23 02:02:43;;;;;;;11.70;7.47;;;12.60;99.90;;;;;;4212976;28;20165;-65
2022/10/23 02:05:13;;;;;;;9.17;7.10;;;12.50;99.90;;;;;;4212869;28;20349;-65
2022/10/23 02:07:14;;;;;;;13.20;7.80;;;12.50;99.90;;;;;;4213495;28;20082;-66
2022/10/23 02:09:15;;;;;;;11.07;7.20;;;12.50;99.90;;;;;;4212008;28;20040;-65
2022/10/23 02:11:19;;;;;;;11.80;7.93;;;12.40;99.90;;;;;;4197353;28;20040;-66
2022/10/23 02:14:00;;;;;;;13.60;9.40;;;12.40;99.90;;;;;;4195408;28;20048;-65
2022/10/23 02:16:07;;;;;;;16.23;8.60;;;12.40;99.90;;;;;;4196493;28;20040;-66
2022/10/23 02:18:14;;;;;;;14.70;8.67;;;12.40;99.90;;;;;;4195727;28;20427;-66
2022/10/23 02:20:32;;;;;;;13.13;8.77;;;12.40;99.90;;;;;;4196096;28;20074;-66
2022/10/23 02:22:40;;;;;;;15.20;8.67;;;12.40;99.90;;;;;;4199929;28;20043;-64
2022/10/23 02:24:49;;;;;;;13.67;8.87;;;12.40;99.90;;;;;;4200263;28;20092;-67
2022/10/23 02:26:54;;;;;;;12.53;8.23;;;12.40;99.90;;;;;;4194757;28;20040;-66
2022/10/23 02:29:02;;;;;;;15.40;9.50;;;12.30;99.90;;;;;;4195425;28;20040;-63
2022/10/23 02:31:06;;;;;;;14.73;9.50;;;12.40;99.90;;;;;;4194850;28;20464;-64
2022/10/23 02:33:09;;;;;;;12.53;7.37;;;12.30;99.90;;;;;;4197005;28;20090;-67
2022/10/23 02:35:11;;;;;;;11.80;7.07;;;12.40;99.90;;;;;;4195673;28;20460;-66
2022/10/23 02:37:12;;;;;;;13.40;8.77;;;12.40;99.90;;;;;;4195021;28;20040;-66
2022/10/23 02:39:13;;;;;;;12.07;8.00;;;12.40;99.90;;;;;;4196032;28;20098;-66
2022/10/23 02:41:29;;;;;;;10.67;7.87;;;12.40;99.90;;;;;;4195604;28;20029;-66
2022/10/23 02:43:38;;;;;;;14.63;8.70;;;12.40;99.90;;;;;;4195691;28;20059;-66
2022/10/23 02:45:52;;;;;;;13.17;8.03;;;12.40;99.90;;;;;;4195704;28;20090;-66
2022/10/23 02:47:56;;;;;;;13.80;8.83;;;12.50;99.90;;;;;;4195773;28;20037;-64
2022/10/23 02:50:35;;;;;;;11.07;6.93;;;12.40;99.90;;;;;;4206735;28;20020;-65
2022/10/23 02:53:10;;;;;;;10.20;8.23;;;12.50;99.90;;;;;;4211097;28;20040;-64
2022/10/23 02:55:30;;;;;;;11.70;7.40;;;12.40;99.90;;;;;;4212893;28;20024;-65
2022/10/23 02:57:40;;;;;;;11.80;6.70;;;12.40;99.90;;;;;;4211657;28;20028;-66
2022/10/23 02:59:57;;;;;;;10.50;7.53;;;12.40;99.90;;;;;;4212266;28;20071;-64
2022/10/23 03:02:15;;;;;;;11.57;7.40;;;12.50;99.90;;;;;;4192768;28;20049;-65
2022/10/23 03:04:19;;;;;;;11.17;6.50;;;12.40;99.90;;;;;;4212710;28;20049;-65
2022/10/23 03:06:22;;;;;;;11.90;6.97;;;12.40;99.90;;;;;;4210678;28;20044;-65
2022/10/23 03:08:23;;;;;;;8.93;6.27;;;12.50;99.90;;;;;;4212749;28;20028;-63
2022/10/23 03:10:25;;;;;;;10.37;6.00;;;12.40;99.90;;;;;;4193052;28;20048;-66
2022/10/23 03:12:26;;;;;;;9.13;6.50;;;12.40;99.90;;;;;;4197483;28;20102;-66
2022/10/23 03:14:27;;;;;;;8.30;5.83;;;12.50;99.90;;;;;;4200574;28;20040;-64
2022/10/23 03:16:28;;;;;;;7.70;5.97;;;12.40;99.90;;;;;;4212567;28;20085;-64
2022/10/23 03:18:29;;;;;;;9.57;6.40;;;12.50;99.90;;;;;;4193049;28;20463;-65
2022/10/23 03:20:30;;;;;;;8.17;5.90;;;12.50;99.90;;;;;;4212048;28;20032;-65
2022/10/23 03:22:32;;;;;;;7.60;5.80;;;12.50;99.90;;;;;;4211435;28;20040;-65
2022/10/23 03:24:33;;;;;;;8.20;5.50;;;12.50;99.90;;;;;;4209544;28;20035;-64
2022/10/23 03:26:34;;;;;;;8.37;5.60;;;12.50;99.90;;;;;;4201961;28;20846;-64
2022/10/23 03:28:35;;;;;;;9.73;5.60;;;12.50;99.90;;;;;;4193593;28;20036;-64
2022/10/23 03:30:36;;;;;;;7.93;5.93;;;12.50;99.90;;;;;;4197320;28;20089;-65
2022/10/23 03:32:37;;;;;;;7.37;5.37;;;12.60;99.90;;;;;;4196142;28;20110;-64
2022/10/23 03:34:38;;;;;;;7.43;5.80;;;12.60;99.90;;;;;;4196040;28;20081;-66
2022/10/23 03:36:40;;;;;;;9.70;6.90;;;12.60;99.90;;;;;;4195067;28;20094;-65
2022/10/23 03:38:41;;;;;;;7.33;5.60;;;12.60;99.90;;;;;;4210009;28;20443;-63
2022/10/23 03:40:42;;;;;;;6.07;4.87;;;12.60;99.90;;;;;;4203331;28;20040;-65
2022/10/23 03:42:43;;;;;;;8.77;6.00;;;12.60;99.90;;;;;;4192297;28;20060;-65
2022/10/23 03:44:44;;;;;;;8.23;5.83;;;12.50;99.90;;;;;;4193308;28;20065;-64
2022/10/23 03:46:46;;;;;;;9.97;5.73;;;12.50;99.90;;;;;;4195274;28;20036;-66
2022/10/23 03:48:47;;;;;;;8.10;5.40;;;12.50;99.90;;;;;;4193195;28;20447;-64
2022/10/23 03:50:48;;;;;;;8.97;5.97;;;12.50;99.90;;;;;;4198174;28;20036;-63
2022/10/23 03:52:49;;;;;;;7.87;5.30;;;12.50;99.90;;;;;;4206385;28;20472;-65
2022/10/23 03:54:51;;;;;;;7.73;5.33;;;12.40;99.90;;;;;;4196476;28;20082;-65
2022/10/23 03:56:53;;;;;;;7.57;5.33;;;12.40;99.90;;;;;;4194895;28;20024;-66
2022/10/23 03:58:54;;;;;;;6.97;4.93;;;12.40;99.90;;;;;;4187981;28;20090;-65
2022/10/23 04:00:56;;;;;;;8.53;5.30;;;12.40;99.90;;;;;;4203381;28;20040;-66
2022/10/23 04:02:57;;;;;;;7.33;5.33;;;12.50;99.90;;;;;;4210643;28;20097;-66
2022/10/23 04:04:58;;;;;;;7.83;5.00;;;12.40;99.90;;;;;;4208063;28;20149;-66
2022/10/23 04:06:59;;;;;;;6.87;5.07;;;12.40;99.90;;;;;;4194048;28;20451;-65
2022/10/23 04:09:00;;;;;;;7.73;5.20;;;12.40;99.90;;;;;;4194237;28;20040;-65
2022/10/23 04:11:01;;;;;;;6.90;4.70;;;12.40;99.90;;;;;;4193944;28;20036;-65
2022/10/23 04:13:02;;;;;;;8.13;4.90;;;12.40;99.90;;;;;;4195065;28;20507;-63
2022/10/23 04:15:04;;;;;;;8.17;5.20;;;12.40;99.90;;;;;;4193664;28;20040;-66
2022/10/23 04:17:05;;;;;;;5.60;4.47;;;12.40;99.90;;;;;;4193964;28;20086;-66
2022/10/23 04:19:06;;;;;;;8.67;5.03;;;12.40;99.90;;;;;;4192840;28;20066;-66
2022/10/23 04:21:08;;;;;;;8.67;5.70;;;12.40;99.90;;;;;;4194557;28;20086;-64
2022/10/23 04:23:09;;;;;;;7.90;4.90;;;12.40;99.90;;;;;;4193902;28;20433;-65
2022/10/23 04:25:10;;;;;;;8.47;5.57;;;12.40;99.90;;;;;;4193241;28;20090;-64
2022/10/23 04:27:12;;;;;;;7.63;5.00;;;12.40;99.90;;;;;;4194430;28;20025;-64
2022/10/23 04:29:13;;;;;;;6.57;4.80;;;12.40;99.90;;;;;;4175567;28;20041;-65
2022/10/23 04:31:14;;;;;;;7.40;5.07;;;12.40;99.90;;;;;;4195152;28;20129;-65
2022/10/23 04:33:15;;;;;;;6.30;5.10;;;12.40;99.90;;;;;;4200069;28;20106;-65
2022/10/23 04:35:18;;;;;;;7.17;4.97;;;12.40;99.90;;;;;;4195990;28;20082;-65
2022/10/23 04:37:19;;;;;;;7.73;4.83;;;12.40;99.90;;;;;;4193024;28;20058;-65
2022/10/23 04:39:20;;;;;;;8.27;5.13;;;12.40;99.90;;;;;;4194800;28;20098;-63
2022/10/23 04:41:21;;;;;;;8.10;5.23;;;12.40;99.90;;;;;;4193040;28;20110;-64
2022/10/23 04:43:22;;;;;;;7.20;4.83;;;12.40;99.90;;;;;;4194496;28;20558;-65
2022/10/23 04:45:23;;;;;;;7.27;5.00;;;12.30;99.90;;;;;;4192997;28;20040;-63
2022/10/23 04:47:24;;;;;;;10.10;5.50;;;12.30;99.90;;;;;;4193737;28;20089;-64
2022/10/23 04:49:26;;;;;;;7.80;4.97;;;12.40;99.90;;;;;;4193646;28;20021;-66
2022/10/23 04:51:27;;;;;;;7.60;5.60;;;12.30;99.90;;;;;;4194519;28;20093;-65
2022/10/23 04:53:29;;;;;;;8.90;5.53;;;12.30;99.90;;;;;;4193868;28;20093;-65
2022/10/23 04:55:30;;;;;;;7.67;5.87;;;12.30;99.90;;;;;;4193508;28;20109;-65
2022/10/23 04:57:31;;;;;;;8.73;5.10;;;12.30;99.90;;;;;;4201580;28;20419;-66
2022/10/23 04:59:32;;;;;;;11.83;5.97;;;12.30;99.90;;;;;;4209766;28;20051;-65
2022/10/23 05:01:34;;;;;;;7.83;4.97;;;12.30;99.90;;;;;;4212251;28;20040;-63
2022/10/23 05:03:36;;;;;;;7.63;5.13;;;12.30;99.90;;;;;;4213212;28;20369;-64
2022/10/23 05:05:37;;;;;;;6.50;4.83;;;12.30;99.90;;;;;;4206195;28;20572;-65
2022/10/23 05:07:39;;;;;;;9.17;5.77;;;12.30;99.90;;;;;;4196664;28;20106;-64
2022/10/23 05:09:40;;;;;;;7.37;5.30;;;12.30;99.90;;;;;;4197791;28;20082;-64
2022/10/23 05:11:41;;;;;;;8.93;5.60;;;12.30;99.90;;;;;;4196189;28;20040;-63
2022/10/23 05:13:42;;;;;;;9.33;5.30;;;12.30;99.90;;;;;;4197516;28;20029;-63
2022/10/23 05:15:44;;;;;;;6.03;4.73;;;12.30;99.90;;;;;;4196539;28;20024;-62
2022/10/23 05:17:49;;;;;;;7.77;5.20;;;12.40;99.90;;;;;;4196813;28;20041;-64
2022/10/23 05:19:55;;;;;;;8.13;5.03;;;12.40;99.90;;;;;;4195551;28;20094;-63
2022/10/23 05:21:56;;;;;;;9.50;5.63;;;12.40;99.90;;;;;;4204969;28;20020;-63
2022/10/23 05:24:00;;;;;;;7.37;4.83;;;12.40;99.90;;;;;;4213270;28;20492;-64
2022/10/23 05:26:02;;;;;;;8.33;5.10;;;12.40;99.90;;;;;;4201942;28;20044;-64
2022/10/23 05:28:04;;;;;;;7.40;5.30;;;12.40;99.90;;;;;;4195866;28;20036;-64
2022/10/23 05:30:05;;;;;;;7.63;4.93;;;12.40;99.90;;;;;;4196778;28;20025;-64
2022/10/23 05:32:09;;;;;;;8.20;4.67;;;12.40;99.90;;;;;;4196129;28;20032;-63
2022/10/23 05:34:13;;;;;;;7.10;4.77;;;12.40;99.90;;;;;;4209901;28;20043;-66
2022/10/23 05:36:15;;;;;;;8.00;4.73;;;12.40;99.90;;;;;;4205337;28;20059;-64
2022/10/23 05:38:16;;;;;;;6.77;4.90;;;12.40;99.90;;;;;;4201967;28;20052;-63
2022/10/23 05:40:18;;;;;;;7.70;4.97;;;12.40;99.90;;;;;;4196877;28;20086;-63
2022/10/23 05:42:19;;;;;;;6.83;4.50;;;12.40;99.90;;;;;;4195776;28;20044;-63
2022/10/23 05:44:20;;;;;;;7.17;4.90;;;12.50;99.90;;;;;;4196225;28;20063;-64
2022/10/23 05:46:22;;;;;;;7.40;4.90;;;12.50;99.90;;;;;;4195479;28;20086;-64
2022/10/23 05:48:23;;;;;;;7.23;5.07;;;12.50;99.90;;;;;;4207703;28;20070;-64
2022/10/23 05:50:25;;;;;;;10.03;4.87;;;12.50;99.90;;;;;;4209941;28;20082;-63
2022/10/23 05:52:26;;;;;;;5.77;3.90;;;12.60;99.90;;;;;;4197361;28;20048;-63
2022/10/23 05:54:27;;;;;;;6.63;4.70;;;12.60;99.90;;;;;;4194777;28;20110;-65
2022/10/23 05:56:28;;;;;;;6.43;4.90;;;12.60;99.90;;;;;;4196407;28;20028;-65
2022/10/23 05:58:29;;;;;;;5.40;3.73;;;12.70;99.90;;;;;;4195129;28;20183;-63
2022/10/23 06:00:31;;;;;;;5.97;4.90;;;12.80;99.90;;;;;;4196236;28;20090;-64
2022/10/23 06:02:32;;;;;;;8.17;5.20;;;12.80;99.90;;;;;;4196243;28;20090;-65
2022/10/23 06:04:34;;;;;;;7.77;5.10;;;12.80;99.90;;;;;;4196031;28;20082;-63
2022/10/23 06:06:35;;;;;;;9.83;5.53;;;12.90;99.90;;;;;;4195463;28;20085;-64
2022/10/23 06:08:36;;;;;;;9.13;5.53;;;12.90;99.90;;;;;;4195362;28;20429;-66
2022/10/23 06:10:37;;;;;;;6.20;4.93;;;12.90;99.90;;;;;;4195590;28;20041;-63
2022/10/23 06:12:38;;;;;;;6.27;4.80;;;12.90;99.90;;;;;;4195529;28;20526;-62
2022/10/23 06:14:40;;;;;;;8.33;4.87;;;12.90;99.90;;;;;;4207397;28;20040;-63
2022/10/23 06:16:41;;;;;;;6.73;5.33;;;12.90;99.90;;;;;;4211971;28;20833;-63
2022/10/23 06:18:43;;;;;;;6.50;4.70;;;13.00;99.90;;;;;;4212697;28;20062;-63
2022/10/23 06:20:44;;;;;;;7.40;5.27;;;13.10;99.90;;;;;;4210834;28;20044;-63
2022/10/23 06:22:45;;;;;;;6.57;4.90;;;13.20;99.90;;;;;;4211863;28;20129;-63
2022/10/23 06:24:46;;;;;;;5.63;4.90;;;13.20;99.90;;;;;;4211600;28;20100;-64
2022/10/23 06:26:48;;;;;;;6.37;4.57;;;13.20;99.90;;;;;;4212790;28;20028;-64
2022/10/23 06:28:49;;;;;;;6.53;4.80;;;13.30;99.90;;;;;;4210350;28;20077;-64
2022/10/23 06:30:50;;;;;;;8.47;5.50;;;13.30;99.90;;;;;;4211506;28;20438;-64
2022/10/23 06:32:53;;;;;;;8.63;4.43;;;13.40;99.90;;;;;;4210560;28;20032;-64
2022/10/23 06:34:54;;;;;;;6.67;4.13;;;13.40;99.90;;;;;;4211063;28;20028;-64
2022/10/23 06:36:55;;;;;;;5.73;4.03;;;13.40;99.90;;;;;;4208229;28;20036;-63
2022/10/23 06:38:56;;;;;;;5.47;3.77;;;13.50;99.90;;;;;;4188687;28;20044;-66
2022/10/23 06:40:57;;;;;;;5.87;4.20;;;13.70;99.90;;;;;;4209098;28;20036;-64
2022/10/23 06:42:59;;;;;;;6.10;4.00;;;13.80;99.90;;;;;;4210245;28;20040;-65
2022/10/23 06:45:00;;;;;;;5.67;3.80;;;14.00;99.90;;;;;;4212764;28;20044;-64
2022/10/23 06:47:01;;;;;;;5.43;4.00;;;14.10;99.90;;;;;;4210476;28;20040;-65
2022/10/23 06:49:02;;;;;;;4.87;3.60;;;14.10;99.90;;;;;;4212225;28;20540;-64
2022/10/23 06:51:06;;;;;;;6.83;4.03;;;14.00;99.90;;;;;;4211152;28;20085;-64
2022/10/23 06:53:08;;;;;;;4.90;3.70;;;14.10;99.90;;;;;;4212367;28;20032;-64
2022/10/23 06:55:09;;;;;;;4.17;3.40;;;14.00;99.90;;;;;;4195513;28;20032;-63
2022/10/23 06:57:10;;;;;;;4.10;3.20;;;14.00;99.90;;;;;;4194964;28;20098;-64
2022/10/23 06:59:13;;;;;;;4.40;3.37;;;14.00;99.90;;;;;;4194278;28;20517;-64
2022/10/23 07:01:15;;;;;;;3.40;2.70;;;14.00;99.90;;;;;;4193456;28;20565;-64
2022/10/23 07:03:16;;;;;;;8.00;5.30;;;14.00;99.90;;;;;;4198126;28;20048;-65
2022/10/23 07:05:18;;;;;;;8.40;6.23;;;13.90;99.90;;;;;;4195013;28;20435;-63
2022/10/23 07:07:19;;;;;;;5.73;3.33;;;13.90;99.90;;;;;;4197631;28;20488;-66
2022/10/23 07:09:20;;;;;;;4.57;3.03;;;13.90;99.90;;;;;;4198017;28;20020;-65
2022/10/23 07:11:22;;;;;;;4.63;2.80;;;13.90;99.90;;;;;;4204718;28;20100;-63
2022/10/23 07:13:23;;;;;;;5.17;2.90;;;13.90;99.90;;;;;;4201042;28;20450;-66
2022/10/23 07:15:28;;;;;;;3.57;2.80;;;13.90;99.90;;;;;;4195040;28;20029;-66
2022/10/23 07:17:29;;;;;;;4.57;2.97;;;14.00;99.90;;;;;;4194557;28;20040;-67
2022/10/23 07:19:30;;;;;;;5.33;3.30;;;14.00;99.90;;;;;;4196152;28;20032;-65
2022/10/23 07:21:33;;;;;;;2.63;2.30;;;14.40;99.90;;;;;;4201522;28;20196;-66
2022/10/23 07:23:35;;;;;;;5.13;3.50;;;14.50;99.90;;;;;;4194668;28;20036;-65
2022/10/23 07:25:37;;;;;;;3.70;2.80;;;14.60;99.90;;;;;;4194341;28;20032;-67
2022/10/23 07:27:38;;;;;;;4.47;2.60;;;14.70;99.90;;;;;;4195853;28;20032;-64
2022/10/23 07:29:39;;;;;;;3.30;2.63;;;15.00;99.90;;;;;;4193878;28;20431;-65
2022/10/23 07:31:40;;;;;;;4.97;3.00;;;15.30;99.90;;;;;;4205053;28;20094;-68
2022/10/23 07:33:41;;;;;;;4.33;2.47;;;15.60;99.90;;;;;;4209880;28;20078;-63
2022/10/23 07:35:45;;;;;;;3.45;2.65;;;15.90;99.90;;;;;;4192752;28;20067;-66
2022/10/23 07:37:47;;;;;;;3.70;2.58;;;16.00;99.90;;;;;;4208381;28;20086;-65
2022/10/23 07:39:48;;;;;;;4.47;2.85;;;15.90;99.90;;;;;;4210620;28;20496;-66
2022/10/23 07:41:49;;;;;;;4.35;2.92;;;15.80;99.90;;;;;;4197277;28;20378;-65
2022/10/23 07:43:50;;;;;;;5.68;2.83;;;15.70;99.90;;;;;;4196056;28;20036;-64
2022/10/23 07:45:52;;;;;;;3.75;2.45;;;15.70;99.90;;;;;;4205520;28;20100;-64
2022/10/23 07:47:53;;;;;;;2.97;2.45;;;15.60;99.90;;;;;;4196662;28;20070;-65
2022/10/23 07:49:55;;;;;;;3.97;2.53;;;15.50;99.90;;;;;;4189717;28;20092;-64
2022/10/23 07:51:57;;;;;;;3.25;2.63;;;15.40;99.90;;;;;;4193803;28;20879;-66
2022/10/23 07:53:58;;;;;;;3.80;2.25;;;15.30;99.90;;;;;;4194705;28;20024;-66
2022/10/23 07:56:02;;;;;;;3.65;2.55;;;15.20;99.90;;;;;;4194878;28;20029;-65
2022/10/23 07:58:03;;;;;;;3.00;2.20;;;15.10;99.90;;;;;;4194317;28;20070;-65
2022/10/23 08:00:05;;;;;;;3.42;2.22;;;15.00;99.90;;;;;;4193041;28;20033;-65
2022/10/23 08:02:11;;;;;;;5.70;2.63;;;14.90;99.90;;;;;;4181584;28;20040;-65
2022/10/23 08:04:12;;;;;;;2.53;2.08;;;14.80;99.90;;;;;;4172551;28;20037;-63
2022/10/23 08:06:13;;;;;;;3.42;2.72;;;14.80;99.90;;;;;;4166472;28;20083;-66
2022/10/23 08:08:15;;;;;;;4.22;2.80;;;14.80;99.90;;;;;;4167045;28;20641;-64
2022/10/23 08:10:16;;;;;;;3.47;2.80;;;14.80;99.90;;;;;;4177316;28;20045;-65
2022/10/23 08:12:17;;;;;;;4.13;2.33;;;14.80;99.90;;;;;;4166254;28;20041;-64
2022/10/23 08:14:18;;;;;;;3.22;2.38;;;14.80;99.90;;;;;;4175725;28;20028;-64
2022/10/23 08:16:19;;;;;;;3.88;2.53;;;14.80;99.90;;;;;;4174939;28;20028;-65
2022/10/23 08:18:21;;;;;;;3.65;2.55;;;14.80;99.90;;;;;;4174564;28;20033;-66
2022/10/23 08:20:22;;;;;;;2.45;2.25;;;14.80;99.90;;;;;;4177451;28;20779;-64
2022/10/23 08:22:23;;;;;;;2.53;2.17;;;14.90;99.90;;;;;;4171561;28;20074;-64
2022/10/23 08:24:24;;;;;;;4.67;2.73;;;14.90;99.90;;;;;;4184189;28;20033;-64
2022/10/23 08:26:29;;;;;;;5.10;2.67;;;14.90;99.90;;;;;;4176239;28;20363;-63
2022/10/23 08:28:31;;;;;;;3.63;2.25;;;14.90;99.90;;;;;;4177345;28;20550;-63
2022/10/23 08:30:32;;;;;;;5.93;2.90;;;15.00;99.90;;;;;;4163738;28;20041;-65
2022/10/23 08:32:33;;;;;;;3.08;2.10;;;15.00;99.90;;;;;;4165389;28;20091;-64
2022/10/23 08:34:36;;;;;;;2.17;1.98;;;15.00;99.90;;;;;;4173251;28;20045;-64
2022/10/23 08:36:38;;;;;;;3.63;2.08;;;15.00;99.90;;;;;;4178409;28;20063;-65
2022/10/23 08:38:39;;;;;;;4.65;2.10;;;15.00;99.90;;;;;;4175592;28;20013;-65
2022/10/23 08:40:46;;;;;;;4.90;2.15;;;14.90;99.90;;;;;;4172022;28;20535;-62
2022/10/23 08:43:00;;;;;;;2.42;1.70;;;15.00;99.90;;;;;;4166238;28;20041;-63
2022/10/23 08:45:06;;;;;;;2.70;1.92;;;15.00;99.90;;;;;;4160086;28;20107;-65
2022/10/23 08:47:13;;;;;;;2.40;1.73;;;15.00;99.90;;;;;;4175816;28;20151;-65
2022/10/23 08:49:34;;;;;;;4.13;1.67;;;15.00;99.90;;;;;;4168159;28;20091;-64
2022/10/23 08:51:41;;;;;;;4.53;1.80;;;15.10;99.90;;;;;;4176740;28;20029;-69
2022/10/23 08:54:11;;;;;;;2.15;1.70;;;15.20;99.90;;;;;;4176818;28;20388;-69
2022/10/23 08:56:26;;;;;;;2.80;2.50;;;15.20;99.90;;;;;;4166507;28;20040;-70
2022/10/23 08:58:45;;;;;;;3.17;1.80;;;15.30;99.90;;;;;;4176342;28;20118;-67
2022/10/23 09:00:48;;;;;;;3.10;2.03;;;15.30;99.90;;;;;;4183358;28;20115;-65
2022/10/23 09:02:51;;;;;;;2.42;2.03;;;15.30;99.90;;;;;;4194199;28;20083;-66
2022/10/23 09:04:54;;;;;;;3.83;2.08;;;15.40;99.90;;;;;;4192639;28;20024;-66
2022/10/23 09:07:18;;;;;;;2.25;1.60;;;15.50;99.90;;;;;;4193340;28;20086;-65
2022/10/23 09:09:28;;;;;;;42.00;16.95;;;15.50;99.90;;;;;;4191732;28;20037;-63
2022/10/23 09:11:37;;;;;;;6.78;3.33;;;15.70;99.90;;;;;;4193273;28;20041;-63
2022/10/23 09:14:07;;;;;;;3.78;3.00;;;15.70;99.90;;;;;;4191911;28;20029;-66
2022/10/23 09:17:16;;;;;;;9.32;4.18;;;15.80;99.90;;;;;;4192905;28;20040;-64
2022/10/23 09:19:25;;;;;;;6.05;3.60;;;15.80;99.90;;;;;;4091614;28;20085;-65
2022/10/23 09:21:29;;;;;;;2.70;2.08;;;15.70;99.90;;;;;;4160357;28;20040;-64
2022/10/23 09:23:30;;;;;;;4.85;2.70;;;15.60;99.90;;;;;;4194443;28;20040;-66
2022/10/23 09:25:38;;;;;;;5.57;3.47;;;15.60;99.90;;;;;;4190626;28;20485;-65
2022/10/23 09:27:46;;;;;;;5.32;3.25;;;15.60;99.90;;;;;;4181114;28;20388;-64
2022/10/23 09:29:53;;;;;;;3.47;2.55;;;15.60;99.90;;;;;;4182031;28;20040;-64
2022/10/23 09:31:59;;;;;;;5.10;1.98;;;15.70;99.90;;;;;;4191340;28;20074;-65
2022/10/23 09:34:00;;;;;;;12.80;5.40;;;15.90;99.90;;;;;;4193575;28;20055;-65
2022/10/23 09:36:05;;;;;;;4.03;2.40;;;16.10;99.90;;;;;;4191175;28;20063;-66
2022/10/23 09:38:26;;;;;;;10.50;5.82;;;16.20;99.90;;;;;;4192288;28;20427;-65
2022/10/23 09:40:35;;;;;;;5.20;4.03;;;16.50;99.90;;;;;;4192457;28;20811;-66
2022/10/23 09:42:36;;;;;;;5.13;4.00;;;16.60;99.90;;;;;;4193331;28;20028;-65
2022/10/23 09:44:47;;;;;;;7.28;3.58;;;16.70;99.90;;;;;;4190502;28;20110;-66
2022/10/23 09:47:09;;;;;;;3.80;3.40;;;16.80;99.90;;;;;;4190043;28;20476;-66
2022/10/23 09:49:21;;;;;;;5.28;3.90;;;16.90;99.90;;;;;;4192116;28;20051;-66
2022/10/23 09:51:22;;;;;;;7.43;4.28;;;17.00;99.90;;;;;;4195427;28;20315;-65
2022/10/23 09:53:49;;;;;;;3.03;1.95;;;17.00;99.90;;;;;;4193145;28;20082;-66
2022/10/23 09:55:52;;;;;;;3.47;2.50;;;17.20;99.90;;;;;;4185671;28;20082;-66
2022/10/23 09:57:54;;;;;;;2.97;2.17;;;17.30;99.90;;;;;;4193908;28;20070;-65
2022/10/23 10:00:00;;;;;;;3.38;2.78;;;17.40;99.90;;;;;;4194781;28;20090;-66
2022/10/23 10:02:03;;;;;;;4.95;3.33;;;17.50;99.90;;;;;;4176023;28;20091;-66
2022/10/23 10:04:04;;;;;;;15.18;6.05;;;17.60;99.90;;;;;;4196015;28;20040;-64
2022/10/23 10:06:19;;;;;;;11.73;4.45;;;17.70;99.90;;;;;;4194493;28;20021;-66
2022/10/23 10:08:45;;;;;;;2.55;1.10;;;17.70;99.90;;;;;;4195231;28;20071;-66
2022/10/23 10:10:52;;;;;;;1.40;1.25;;;17.70;99.90;;;;;;4194661;28;20161;-65
2022/10/23 10:12:59;;;;;;;2.13;1.00;;;17.60;99.90;;;;;;4195265;28;20066;-65
2022/10/23 10:15:26;;;;;;;2.08;1.25;;;17.40;99.90;;;;;;4194059;28;20048;-67
2022/10/23 10:17:36;;;;;;;3.30;1.52;;;17.40;99.90;;;;;;4194114;28;20145;-66
2022/10/23 10:19:47;;;;;;;2.22;1.45;;;17.40;99.90;;;;;;4194611;28;20033;-65
2022/10/23 10:21:48;;;;;;;;;;;17.40;99.90;;;;;;4195265;28;20024;-67
2022/10/23 10:24:03;;;;;;;7.35;1.25;;;17.50;99.90;;;;;;4194324;28;19916;-65
2022/10/23 10:26:33;;;;;;;17.52;2.35;;;17.50;99.90;;;;;;4194335;28;20033;-65
2022/10/23 10:29:01;;;;;;;3.50;1.08;;;17.50;99.90;;;;;;4194140;28;20159;-66
2022/10/23 10:31:17;;;;;;;3.60;1.67;;;17.50;99.90;;;;;;4193682;28;20036;-65
2022/10/23 10:33:34;;;;;;;1.95;1.60;;;17.40;99.90;;;;;;4194733;28;20025;-66
2022/10/23 10:35:38;;;;;;;3.30;2.15;;;17.30;99.90;;;;;;4194790;28;20477;-66
2022/10/23 10:38:14;;;;;;;3.67;2.00;;;17.10;99.90;;;;;;4194693;28;20036;-66
2022/10/23 10:40:28;;;;;;;2.92;1.83;;;17.10;99.90;;;;;;4127257;28;20073;-65
2022/10/23 10:42:44;;;;;;;2.60;2.17;;;17.00;99.90;;;;;;4171208;28;20086;-65
2022/10/23 10:44:49;;;;;;;3.00;1.70;;;17.00;99.90;;;;;;4194225;28;20102;-65
2022/10/23 10:46:53;;;;;;;3.75;2.47;;;16.90;99.90;;;;;;4195430;28;20039;-66
2022/10/23 10:49:05;;;;;;;1.55;1.45;;;16.90;99.90;;;;;;4194156;28;20032;-66
2022/10/23 10:51:16;;;;;;;1.75;1.65;;;16.80;99.90;;;;;;4193932;28;20102;-67
2022/10/23 10:53:32;;;;;;;2.80;1.90;;;16.90;99.90;;;;;;4193525;28;20048;-67